Terminal Aerodrome Forecast
Issued by NWS Wakefield, VA

Home | Current Version | Previous Version | Text Only | Print | Product List | Glossary On
Versions: 1 2 3 4 5 6 7 8 9 10 11 12 13 14 15 16 17 18
000
FTUS41 KAKQ 281319 AAA
TAFSBY
TAF AMD
KSBY 281319Z 2813/2912 33014G24KT P6SM FEW060
     FM281500 33012G20KT P6SM BKN050
     FM282100 33010KT P6SM SCT250=

USA.gov is the U.S. government's official web portal to all federal, state and local government web resources and services.